Terminal Aerodrome Forecast
Issued by NWS New Orleans/Baton Rouge, LA

Home | Current Version | Previous Version | Text Only | Print | Product List | Glossary On
Versions: 1 2 3 4 5 6 7 8 9 10 11 12 13 14 15 16
000
FTUS44 KLIX 271134
TAFBTR
TAF
KBTR 271134Z 2712/2812 15007KT P6SM VCTS OVC015CB
      TEMPO 2712/2715 2SM RA BR OVC010
     FM271700 19008KT P6SM VCTS BKN025CB
     FM272100 18008KT P6SM BKN045
     FM280200 15008KT P6SM BKN030
     FM280500 16008KT P6SM OVC008=

USA.gov is the U.S. government's official web portal to all federal, state and local government web resources and services.